Time;durP1;ratioP1;P1;durP2;ratioP2;P2;SDS_P1;SDS_P2;PMS_P1;PMS_P2;Temp;Humidity;BMP_temperature;BMP_pressure;BME280_temperature;BME280_humidity;BME280_pressure;Samples;Min_cycle;Max_cycle;Signal;HPM_P1;HPM_P2
2022/11/12 00:00:01;;;;;;;2.77;2.30;;;4.60;1.00;;;;;;5045467;28;20209;-79
2022/11/12 00:02:26;;;;;;;2.40;1.93;;;4.60;1.00;;;;;;5044324;28;20730;-79
2022/11/12 00:04:52;;;;;;;2.97;2.50;;;4.60;1.00;;;;;;5045436;28;20218;-79
2022/11/12 00:07:17;;;;;;;3.50;2.07;;;4.50;1.00;;;;;;5046580;28;20834;-79
2022/11/12 00:09:43;;;;;;;2.20;1.87;;;4.40;1.00;;;;;;5046539;28;20273;-78
2022/11/12 00:12:08;;;;;;;2.73;1.80;;;4.30;1.00;;;;;;5048217;28;20178;-80
2022/11/12 00:14:34;;;;;;;3.40;2.00;;;4.30;1.00;;;;;;5046210;28;21060;-79
2022/11/12 00:17:00;;;;;;;4.57;2.20;;;4.10;1.00;;;;;;5046740;28;20193;-79
2022/11/12 00:19:25;;;;;;;3.63;2.50;;;4.10;1.00;;;;;;5046868;28;20206;-80
2022/11/12 00:21:51;;;;;;;3.43;2.30;;;3.60;99.90;;;;;;5047561;28;20644;-79
2022/11/12 00:24:17;;;;;;;3.97;2.30;;;;;;;;;;5049521;28;20198;-79
2022/11/12 00:26:42;;;;;;;4.07;2.17;;;3.70;1.00;;;;;;5048817;28;20182;-79
2022/11/12 00:29:08;;;;;;;3.53;2.50;;;3.70;12.40;;;;;;5047378;28;20185;-79
2022/11/12 00:31:33;;;;;;;2.70;2.27;;;3.60;21.10;;;;;;5047458;28;20190;-79
2022/11/12 00:33:59;;;;;;;3.70;2.23;;;3.60;22.40;;;;;;5048664;28;20196;-78
2022/11/12 00:36:24;;;;;;;3.83;2.40;;;3.50;16.90;;;;;;5048693;28;20197;-78
2022/11/12 00:38:50;;;;;;;4.00;2.90;;;3.50;42.10;;;;;;5046975;28;20570;-79
2022/11/12 00:41:16;;;;;;;4.67;2.97;;;3.40;15.80;;;;;;5046054;28;20181;-79
2022/11/12 00:43:41;;;;;;;4.70;2.97;;;3.40;20.90;;;;;;5045921;28;20198;-77
2022/11/12 00:46:07;;;;;;;3.43;2.50;;;3.30;9.20;;;;;;5046409;28;20285;-79
2022/11/12 00:48:32;;;;;;;4.20;2.87;;;3.30;21.90;;;;;;5045760;28;20531;-79
2022/11/12 00:51:00;;;;;;;2.67;2.20;;;3.30;34.60;;;;;;5046291;28;20264;-78
2022/11/12 00:53:25;;;;;;;4.53;2.50;;;3.30;45.40;;;;;;5064131;28;20187;-79
2022/11/12 00:55:51;;;;;;;3.67;2.70;;;3.20;33.00;;;;;;5048186;28;20215;-78
2022/11/12 00:58:16;;;;;;;5.00;2.60;;;3.20;43.90;;;;;;5048490;28;20201;-78
2022/11/12 01:00:42;;;;;;;3.67;2.73;;;3.20;55.10;;;;;;5048642;28;20233;-78
2022/11/12 01:03:08;;;;;;;3.57;2.20;;;3.20;57.80;;;;;;5046742;28;20182;-79
2022/11/12 01:05:33;;;;;;;5.10;3.03;;;3.20;71.70;;;;;;5044798;28;20619;-78
2022/11/12 01:07:59;;;;;;;3.23;2.47;;;3.10;25.80;;;;;;5045624;28;20230;-78
2022/11/12 01:10:25;;;;;;;3.20;2.90;;;2.90;4.90;;;;;;5046444;28;20188;-78
2022/11/12 01:12:50;;;;;;;3.67;2.40;;;2.80;1.00;;;;;;5046744;28;20186;-78
2022/11/12 01:15:16;;;;;;;4.07;2.87;;;2.70;30.60;;;;;;5047937;28;20237;-79
2022/11/12 01:17:41;;;;;;;3.37;2.60;;;2.70;32.70;;;;;;5051060;28;20182;-78
2022/11/12 01:20:07;;;;;;;3.60;2.97;;;2.70;41.40;;;;;;5051891;28;20214;-78
2022/11/12 01:22:33;;;;;;;3.40;2.80;;;2.60;40.00;;;;;;5051640;28;20181;-78
2022/11/12 01:24:59;;;;;;;4.07;3.00;;;2.70;56.40;;;;;;5048331;28;20202;-79
2022/11/12 01:27:24;;;;;;;3.37;2.73;;;2.60;75.40;;;;;;5050673;28;20557;-78
2022/11/12 01:29:50;;;;;;;5.27;2.83;;;2.70;89.20;;;;;;5050774;28;20576;-78
2022/11/12 01:32:15;;;;;;;3.90;2.87;;;2.80;90.00;;;;;;5051638;28;20186;-79
2022/11/12 01:34:41;;;;;;;3.80;2.80;;;2.80;99.90;;;;;;5050749;28;20620;-79
2022/11/12 01:37:07;;;;;;;4.77;2.30;;;2.90;99.90;;;;;;5050196;28;20182;-79
2022/11/12 01:39:32;;;;;;;4.77;2.70;;;3.10;99.90;;;;;;5052361;28;20248;-79
2022/11/12 01:41:58;;;;;;;2.83;2.33;;;3.10;99.90;;;;;;5052051;28;20212;-79
2022/11/12 01:44:29;;;;;;;3.23;2.20;;;3.10;99.90;;;;;;5052046;28;20237;-78
2022/11/12 01:47:01;;;;;;;4.80;2.50;;;3.10;99.90;;;;;;5052096;28;20939;-78
2022/11/12 01:49:42;;;;;;;3.53;2.70;;;3.20;99.90;;;;;;5067709;28;20193;-79
2022/11/12 01:52:30;;;;;;;3.67;2.63;;;3.30;99.90;;;;;;5049617;28;20182;-79
2022/11/12 01:55:02;;;;;;;2.80;2.43;;;3.30;99.90;;;;;;5049309;28;20753;-78
2022/11/12 01:57:38;;;;;;;4.90;2.40;;;3.30;99.90;;;;;;5049033;28;20197;-79
2022/11/12 02:00:08;;;;;;;4.93;2.87;;;3.30;99.90;;;;;;5047933;28;20213;-79
2022/11/12 02:02:36;;;;;;;4.27;2.73;;;3.50;99.90;;;;;;5048593;28;20766;-79
2022/11/12 02:05:06;;;;;;;4.93;3.00;;;3.40;99.90;;;;;;5050641;28;20241;-78
2022/11/12 02:07:32;;;;;;;3.60;2.97;;;3.20;99.90;;;;;;5051446;28;20217;-78
2022/11/12 02:10:01;;;;;;;3.80;2.77;;;3.20;99.90;;;;;;5048525;28;20694;-79
2022/11/12 02:15:11;;;;;;;4.67;3.53;;;3.10;99.90;;;;;;5048251;28;20323;-78
2022/11/12 02:17:37;;;;;;;4.00;3.40;;;3.10;99.90;;;;;;5050548;28;20267;-79
2022/11/12 02:20:02;;;;;;;4.30;3.40;;;3.10;99.90;;;;;;5049228;28;20202;-78
2022/11/12 02:22:28;;;;;;;3.53;3.00;;;3.00;99.90;;;;;;5050839;28;20182;-79
2022/11/12 02:24:54;;;;;;;5.27;3.30;;;3.00;99.90;;;;;;5049193;28;20230;-79
2022/11/12 02:27:21;;;;;;;4.50;3.70;;;3.00;99.90;;;;;;5050458;28;20182;-78
2022/11/12 02:29:46;;;;;;;4.87;3.30;;;2.90;99.90;;;;;;5050916;28;20191;-79
2022/11/12 02:32:13;;;;;;;4.87;3.93;;;2.90;99.90;;;;;;5050462;28;20223;-78
2022/11/12 02:34:39;;;;;;;5.20;3.30;;;2.90;99.90;;;;;;5051041;28;20204;-79
2022/11/12 02:37:05;;;;;;;4.33;3.33;;;2.90;99.90;;;;;;5050931;28;20186;-78
2022/11/12 02:39:31;;;;;;;3.90;3.50;;;2.90;99.90;;;;;;5049048;28;20210;-79
2022/11/12 02:41:57;;;;;;;4.33;3.30;;;2.90;99.90;;;;;;5047659;28;20664;-79
2022/11/12 02:44:22;;;;;;;4.40;3.50;;;2.80;99.90;;;;;;5047006;28;20224;-78
2022/11/12 02:46:48;;;;;;;5.63;3.77;;;2.80;99.90;;;;;;5045607;28;20183;-77
2022/11/12 02:49:13;;;;;;;3.87;3.50;;;2.70;99.90;;;;;;5047490;28;20716;-79
2022/11/12 02:51:39;;;;;;;4.87;3.70;;;2.60;99.90;;;;;;5048980;28;20193;-77
2022/11/12 02:54:05;;;;;;;4.87;3.60;;;2.60;99.90;;;;;;5048339;28;20256;-79
2022/11/12 02:56:31;;;;;;;4.90;3.67;;;2.50;99.90;;;;;;5046931;28;20198;-80
2022/11/12 02:58:57;;;;;;;3.97;3.40;;;2.50;99.90;;;;;;5046742;28;20197;-77
2022/11/12 03:01:23;;;;;;;3.97;3.57;;;2.40;99.90;;;;;;5047357;28;20179;-79
2022/11/12 03:03:49;;;;;;;4.07;3.37;;;2.40;99.90;;;;;;5047612;28;20190;-79
2022/11/12 03:06:14;;;;;;;4.27;3.37;;;2.40;99.90;;;;;;5047908;28;20217;-76
2022/11/12 03:08:40;;;;;;;5.47;3.73;;;2.40;99.90;;;;;;5047228;28;20185;-78
2022/11/12 03:11:10;;;;;;;4.23;3.43;;;2.40;99.90;;;;;;5047479;28;20190;-79
2022/11/12 03:13:37;;;;;;;5.33;3.87;;;2.40;99.90;;;;;;5063835;28;20698;-77
2022/11/12 03:16:03;;;;;;;5.43;3.23;;;2.50;99.90;;;;;;5047526;28;20288;-79
2022/11/12 03:18:28;;;;;;;5.53;3.47;;;2.60;99.90;;;;;;5047466;28;20265;-77
2022/11/12 03:20:54;;;;;;;4.57;3.30;;;2.60;99.90;;;;;;5048415;28;20624;-79
2022/11/12 03:23:19;;;;;;;4.70;3.57;;;2.50;99.90;;;;;;5047368;28;20218;-77
2022/11/12 03:25:45;;;;;;;4.87;3.30;;;2.50;99.90;;;;;;5047834;28;20213;-78
2022/11/12 03:28:12;;;;;;;3.97;3.30;;;2.50;99.90;;;;;;5044974;28;20190;-79
2022/11/12 03:30:40;;;;;;;5.40;3.40;;;2.70;99.90;;;;;;5046283;28;20277;-77
2022/11/12 03:33:07;;;;;;;3.70;3.30;;;2.70;99.90;;;;;;5048199;28;20641;-77
2022/11/12 03:35:34;;;;;;;6.43;3.40;;;2.60;99.90;;;;;;5061913;28;20288;-78
2022/11/12 03:38:00;;;;;;;4.13;3.33;;;2.60;99.90;;;;;;5046245;28;20191;-78
2022/11/12 03:40:26;;;;;;;4.90;3.03;;;2.70;99.90;;;;;;5048091;28;20320;-79
2022/11/12 03:42:52;;;;;;;4.10;3.00;;;2.70;99.90;;;;;;5046336;28;20182;-77
2022/11/12 03:45:20;;;;;;;4.60;3.40;;;2.70;99.90;;;;;;5048354;28;20261;-78
2022/11/12 03:47:48;;;;;;;4.07;3.27;;;2.60;99.90;;;;;;5046073;28;20190;-77
2022/11/12 03:50:15;;;;;;;3.83;3.20;;;2.70;99.90;;;;;;5045868;28;20265;-79
2022/11/12 03:52:49;;;;;;;4.13;3.50;;;2.80;99.90;;;;;;5044875;28;20186;-79
2022/11/12 03:55:18;;;;;;;3.30;2.83;;;2.70;99.90;;;;;;5046175;28;20263;-79
2022/11/12 03:57:44;;;;;;;6.00;3.37;;;2.60;99.90;;;;;;5048421;28;20233;-79
2022/11/12 04:00:11;;;;;;;5.13;3.03;;;2.60;99.90;;;;;;5046966;28;20643;-79
2022/11/12 04:02:37;;;;;;;3.73;3.27;;;2.50;99.90;;;;;;5049294;28;20190;-79
2022/11/12 04:10:34;;;;;;;16.37;3.40;;;2.40;99.90;;;;;;5048378;28;21287;-79
2022/11/12 04:15:44;;;;;;;5.97;3.27;;;2.20;99.90;;;;;;5046965;28;20263;-79
2022/11/12 04:23:39;;;;;;;3.37;2.70;;;2.20;99.90;;;;;;5044901;28;20184;-75
2022/11/12 04:26:23;;;;;;;3.70;3.00;;;2.10;99.90;;;;;;5044643;28;20212;-83
2022/11/12 04:31:32;;;;;;;3.63;2.73;;;2.00;99.90;;;;;;5047654;28;20177;-79
2022/11/12 04:34:27;;;;;;;4.60;2.80;;;2.00;99.90;;;;;;5047539;28;20179;-79
2022/11/12 04:36:44;;;;;;;3.37;2.53;;;2.00;99.90;;;;;;5046568;28;20186;-78
2022/11/12 04:39:09;;;;;;;6.13;2.50;;;2.00;99.90;;;;;;5046727;28;20194;-79
2022/11/12 04:47:17;;;;;;;3.03;2.60;;;1.90;99.90;;;;;;5046325;28;20186;-79
2022/11/12 04:49:42;;;;;;;3.57;2.73;;;1.90;99.90;;;;;;5044018;28;21171;-77
2022/11/12 04:52:08;;;;;;;3.13;2.83;;;1.80;99.90;;;;;;5047555;28;20617;-77
2022/11/12 04:54:34;;;;;;;3.53;2.63;;;1.80;99.90;;;;;;5043689;28;20252;-78
2022/11/12 04:56:59;;;;;;;4.00;2.60;;;1.80;99.90;;;;;;5046828;28;20185;-80
2022/11/12 04:59:25;;;;;;;3.10;2.50;;;1.80;99.90;;;;;;5043406;28;20198;-78
2022/11/12 05:01:51;;;;;;;4.07;2.83;;;1.80;99.90;;;;;;5046106;28;20182;-79
2022/11/12 05:04:17;;;;;;;4.83;2.60;;;1.90;99.90;;;;;;5046607;28;20206;-78
2022/11/12 05:06:51;;;;;;;3.63;2.70;;;1.80;99.90;;;;;;5047102;28;20178;-77
2022/11/12 05:09:26;;;;;;;3.27;2.67;;;1.80;99.90;;;;;;5046621;28;20671;-77
2022/11/12 05:11:54;;;;;;;3.03;2.63;;;1.80;99.90;;;;;;5045760;28;20185;-80
2022/11/12 05:14:20;;;;;;;3.40;2.50;;;1.80;99.90;;;;;;5045352;28;20252;-80
2022/11/12 05:16:46;;;;;;;4.33;2.80;;;1.80;99.90;;;;;;5045187;28;20213;-79
2022/11/12 05:19:12;;;;;;;3.70;2.60;;;1.80;99.90;;;;;;5044531;28;20686;-77
2022/11/12 05:24:23;;;;;;;3.87;2.60;;;1.90;1.00;;;;;;5045021;28;20228;-79
2022/11/12 05:26:48;;;;;;;3.73;2.90;;;1.90;1.00;;;;;;5045583;28;20212;-78
2022/11/12 05:29:14;;;;;;;3.90;3.20;;;1.90;1.00;;;;;;5047360;28;20186;-80
2022/11/12 05:31:40;;;;;;;3.20;2.77;;;2.10;1.00;;;;;;5045045;28;20191;-79
2022/11/12 05:34:05;;;;;;;3.97;3.10;;;2.20;1.00;;;;;;5045195;28;20652;-79
2022/11/12 05:36:31;;;;;;;3.77;2.90;;;2.20;1.00;;;;;;5044998;28;20217;-79
2022/11/12 05:38:57;;;;;;;4.30;2.90;;;2.20;99.90;;;;;;5045420;28;20653;-79
2022/11/12 05:41:22;;;;;;;3.47;2.57;;;2.10;99.90;;;;;;5044635;28;20186;-78
2022/11/12 05:43:48;;;;;;;2.70;2.40;;;2.40;1.00;;;;;;5046310;28;20311;-79
2022/11/12 05:46:13;;;;;;;4.90;2.90;;;2.40;1.00;;;;;;5046561;28;20214;-79
2022/11/12 05:48:39;;;;;;;3.83;2.53;;;2.40;1.00;;;;;;5048049;28;20648;-79
2022/11/12 05:51:05;;;;;;;3.57;2.50;;;2.60;99.90;;;;;;5045996;28;20198;-79
2022/11/12 05:53:30;;;;;;;2.93;2.40;;;2.40;99.90;;;;;;5042936;28;20194;-79
2022/11/12 05:56:03;;;;;;;4.07;2.30;;;2.20;99.90;;;;;;5045413;28;20205;-79
2022/11/12 05:58:30;;;;;;;3.63;2.47;;;2.10;99.90;;;;;;5045867;28;20899;-80
2022/11/12 06:00:55;;;;;;;5.30;3.07;;;2.00;99.90;;;;;;5045967;28;20198;-79
2022/11/12 06:03:21;;;;;;;7.33;5.13;;;2.10;99.90;;;;;;5047352;28;20193;-80
2022/11/12 06:05:47;;;;;;;5.07;3.37;;;2.00;99.90;;;;;;5049522;28;20549;-79
2022/11/12 06:08:12;;;;;;;4.90;3.10;;;1.90;99.90;;;;;;5049080;28;20189;-80
2022/11/12 06:10:38;;;;;;;3.53;2.97;;;1.90;99.90;;;;;;5047729;28;20488;-79
2022/11/12 06:13:04;;;;;;;5.23;3.17;;;1.90;99.90;;;;;;5047510;28;20190;-77
2022/11/12 06:15:29;;;;;;;4.40;3.00;;;1.90;1.00;;;;;;5049853;28;20219;-78
2022/11/12 06:17:55;;;;;;;3.53;3.23;;;1.80;99.90;;;;;;5049794;28;20208;-79
2022/11/12 06:20:22;;;;;;;3.40;3.00;;;1.60;99.90;;;;;;5049812;28;20206;-77
2022/11/12 06:22:48;;;;;;;3.93;3.00;;;1.60;99.90;;;;;;5047900;28;20186;-79
2022/11/12 06:25:13;;;;;;;3.90;2.93;;;1.50;99.90;;;;;;5048378;28;20202;-78
2022/11/12 06:27:39;;;;;;;5.70;2.93;;;1.50;99.90;;;;;;5048311;28;20188;-78
2022/11/12 06:30:06;;;;;;;3.83;3.03;;;1.40;1.00;;;;;;5063244;28;20574;-77
2022/11/12 06:32:32;;;;;;;3.83;3.00;;;1.50;1.00;;;;;;5047516;28;20559;-77
2022/11/12 06:34:57;;;;;;;4.17;2.87;;;1.50;1.00;;;;;;5048868;28;20220;-79
2022/11/12 06:37:23;;;;;;;4.53;2.93;;;1.50;1.00;;;;;;5048542;28;20609;-80
2022/11/12 06:39:48;;;;;;;3.40;2.90;;;1.50;1.00;;;;;;5048814;28;20206;-78
2022/11/12 06:42:15;;;;;;;4.70;3.30;;;1.50;1.00;;;;;;5048095;28;20190;-78
2022/11/12 06:44:40;;;;;;;4.03;3.23;;;1.60;1.00;;;;;;5049124;28;20198;-79
2022/11/12 06:47:06;;;;;;;7.30;3.80;;;1.60;1.00;;;;;;5048179;28;20232;-78
2022/11/12 06:49:32;;;;;;;4.93;3.77;;;1.70;1.00;;;;;;5046106;28;20216;-78
2022/11/12 06:51:58;;;;;;;6.37;3.57;;;1.70;1.00;;;;;;5046696;28;20537;-78
2022/11/12 06:54:25;;;;;;;5.37;3.43;;;1.80;1.00;;;;;;5046908;28;20221;-79
2022/11/12 06:56:51;;;;;;;5.97;4.60;;;1.90;1.00;;;;;;5047220;28;20186;-79
2022/11/12 06:59:16;;;;;;;7.53;4.80;;;1.90;1.00;;;;;;5047859;28;20209;-79
2022/11/12 07:01:42;;;;;;;6.23;4.27;;;2.00;1.00;;;;;;5047283;28;20240;-77
2022/11/12 07:04:09;;;;;;;5.40;4.33;;;2.00;1.00;;;;;;5048360;28;20182;-79
2022/11/12 07:06:35;;;;;;;6.83;3.70;;;2.00;1.00;;;;;;5050007;28;20178;-77
2022/11/12 07:09:02;;;;;;;4.57;3.10;;;2.10;1.00;;;;;;5048860;28;20259;-78
2022/11/12 07:11:27;;;;;;;5.27;3.63;;;2.10;1.00;;;;;;5049328;28;20193;-80
2022/11/12 07:13:53;;;;;;;4.67;3.30;;;2.10;1.00;;;;;;5047649;28;20178;-79
2022/11/12 07:16:18;;;;;;;5.20;3.57;;;2.20;1.00;;;;;;5048991;28;20207;-80
2022/11/12 07:18:45;;;;;;;4.67;3.53;;;2.20;99.90;;;;;;5046061;28;20186;-77
2022/11/12 07:21:17;;;;;;;6.30;4.40;;;2.30;99.90;;;;;;5048124;28;20275;-81
2022/11/12 07:23:43;;;;;;;5.90;4.10;;;2.30;99.90;;;;;;5048628;28;20190;-80
2022/11/12 07:26:18;;;;;;;4.90;3.60;;;2.40;99.90;;;;;;5048547;28;20215;-80
2022/11/12 07:28:47;;;;;;;4.50;4.00;;;2.40;99.90;;;;;;5048552;28;20185;-81
2022/11/12 07:31:14;;;;;;;4.57;3.00;;;2.50;99.90;;;;;;5048497;28;20190;-79
2022/11/12 07:33:40;;;;;;;3.90;3.30;;;2.50;99.90;;;;;;5046992;28;20219;-81
2022/11/12 07:36:08;;;;;;;4.87;3.87;;;2.50;99.90;;;;;;5047300;28;20221;-79
2022/11/12 07:38:36;;;;;;;5.90;3.37;;;2.50;99.90;;;;;;5047756;28;20215;-78
2022/11/12 07:41:07;;;;;;;4.17;3.53;;;2.60;99.90;;;;;;5046878;28;20221;-79
2022/11/12 07:43:34;;;;;;;5.77;3.63;;;2.60;99.90;;;;;;5047219;28;20188;-79
2022/11/12 07:46:02;;;;;;;3.80;3.43;;;2.60;99.90;;;;;;5047539;28;20220;-80
2022/11/12 07:48:29;;;;;;;5.50;4.47;;;2.60;99.90;;;;;;5047888;28;20304;-78
2022/11/12 07:51:06;;;;;;;5.17;3.80;;;2.70;99.90;;;;;;5048299;28;20193;-80
2022/11/12 07:53:32;;;;;;;4.47;3.70;;;2.90;99.90;;;;;;5048964;28;20198;-80
2022/11/12 07:56:00;;;;;;;5.00;3.40;;;3.00;99.90;;;;;;5048981;28;20217;-80
2022/11/12 07:58:28;;;;;;;5.40;4.03;;;3.00;99.90;;;;;;5048642;28;20205;-78
2022/11/12 08:00:54;;;;;;;3.90;3.10;;;3.20;99.90;;;;;;5048267;28;20214;-76
2022/11/12 08:03:20;;;;;;;3.93;3.53;;;3.20;99.90;;;;;;5048568;28;20216;-81
2022/11/12 08:05:46;;;;;;;3.97;3.23;;;3.30;99.90;;;;;;5048463;28;20261;-80
2022/11/12 08:08:11;;;;;;;5.37;3.60;;;3.50;99.90;;;;;;5048386;28;20188;-80
2022/11/12 08:10:37;;;;;;;6.03;3.20;;;3.70;99.90;;;;;;5049137;28;20769;-79
2022/11/12 08:13:03;;;;;;;4.43;3.47;;;3.80;99.90;;;;;;5046869;28;20638;-80
2022/11/12 08:15:29;;;;;;;4.90;3.47;;;3.80;99.90;;;;;;5049559;28;20328;-79
2022/11/12 08:17:55;;;;;;;5.23;3.40;;;3.90;99.90;;;;;;5048579;28;20213;-79
2022/11/12 08:20:20;;;;;;;3.90;3.30;;;3.80;99.90;;;;;;5048100;28;20206;-80
2022/11/12 08:25:23;;;;;;;5.53;4.43;;;3.90;99.90;;;;;;5763469;22;20245;-81
2022/11/12 08:27:48;;;;;;;4.30;3.43;;;3.90;99.90;;;;;;5006907;28;20609;-82
2022/11/12 08:30:14;;;;;;;4.67;3.23;;;4.00;99.90;;;;;;5007056;28;20203;-82
2022/11/12 08:32:39;;;;;;;4.93;2.90;;;4.00;99.90;;;;;;5006515;28;20218;-82
2022/11/12 08:35:05;;;;;;;4.03;3.20;;;4.00;99.90;;;;;;5006132;28;20743;-80
2022/11/12 08:37:31;;;;;;;4.57;3.17;;;4.20;99.90;;;;;;5007267;28;20188;-80
2022/11/12 08:39:59;;;;;;;3.83;3.07;;;4.30;99.90;;;;;;5006992;28;20210;-83
2022/11/12 08:42:24;;;;;;;4.17;3.00;;;4.50;99.90;;;;;;5007649;28;20183;-84
2022/11/12 08:44:50;;;;;;;4.73;3.50;;;4.60;99.90;;;;;;5006790;28;20191;-79
2022/11/12 08:47:16;;;;;;;4.77;3.37;;;4.80;95.60;;;;;;5006979;28;20187;-80
2022/11/12 08:49:41;;;;;;;4.73;3.43;;;4.90;91.30;;;;;;5006965;28;20213;-79
2022/11/12 08:52:07;;;;;;;4.07;3.30;;;5.10;73.60;;;;;;5007684;28;20247;-83
2022/11/12 08:54:34;;;;;;;4.97;3.10;;;5.30;52.30;;;;;;5005291;28;20194;-79
2022/11/12 08:57:00;;;;;;;5.03;3.40;;;5.60;37.70;;;;;;5006875;28;20233;-80
2022/11/12 08:59:26;;;;;;;5.07;3.17;;;6.00;27.00;;;;;;5006288;28;20613;-81
2022/11/12 09:01:52;;;;;;;4.37;2.90;;;6.20;1.00;;;;;;5007496;28;20192;-80
2022/11/12 09:04:17;;;;;;;4.23;3.53;;;6.40;1.00;;;;;;5005587;28;20191;-79
2022/11/12 09:06:44;;;;;;;4.00;3.20;;;7.20;1.00;;;;;;5007322;28;20206;-81
2022/11/12 09:09:09;;;;;;;3.50;3.20;;;6.80;1.00;;;;;;5006694;28;20211;-79
2022/11/12 09:11:35;;;;;;;4.43;3.23;;;7.00;1.00;;;;;;5005473;28;20204;-80
2022/11/12 09:14:01;;;;;;;4.77;3.50;;;7.20;1.00;;;;;;5006339;28;20210;-82
2022/11/12 09:16:27;;;;;;;6.20;3.43;;;7.30;1.00;;;;;;5005349;28;20677;-79
2022/11/12 09:18:54;;;;;;;4.10;3.50;;;7.60;1.00;;;;;;5005927;28;20728;-81
2022/11/12 09:21:23;;;;;;;3.60;3.17;;;8.10;1.00;;;;;;5006178;28;20222;-79
2022/11/12 09:23:49;;;;;;;5.20;3.77;;;7.90;1.00;;;;;;5007314;28;20183;-80
2022/11/12 09:26:14;;;;;;;3.93;3.53;;;8.00;1.00;;;;;;5006417;28;20234;-82
2022/11/12 09:28:40;;;;;;;8.70;5.83;;;8.10;1.00;;;;;;5006229;28;20186;-77
2022/11/12 09:31:07;;;;;;;7.37;6.00;;;8.10;1.00;;;;;;5006731;28;20218;-85
2022/11/12 09:33:33;;;;;;;6.33;5.37;;;8.40;1.00;;;;;;5005565;28;20835;-83
2022/11/12 09:36:02;;;;;;;4.93;4.30;;;8.90;1.00;;;;;;5008814;28;20211;-80
2022/11/12 09:38:29;;;;;;;6.07;4.77;;;8.50;1.00;;;;;;5010983;28;20223;-83
2022/11/12 09:41:09;;;;;;;5.17;3.40;;;8.60;1.00;;;;;;5010383;28;20261;-82
2022/11/12 09:43:48;;;;;;;3.73;3.03;;;8.60;1.00;;;;;;5010556;28;20183;-80
2022/11/12 09:46:48;;;;;;;3.87;3.40;;;8.60;1.00;;;;;;5012377;28;20199;-80
2022/11/12 09:49:36;;;;;;;6.57;5.47;;;8.70;1.00;;;;;;4997721;28;20238;-80
2022/11/12 09:52:15;;;;;;;7.63;4.80;;;8.80;1.00;;;;;;5010379;28;20254;-81
2022/11/12 09:54:41;;;;;;;5.50;3.67;;;8.80;1.00;;;;;;5010554;28;20180;-87
2022/11/12 09:57:13;;;;;;;5.37;3.37;;;8.90;1.00;;;;;;5009465;28;20238;-82
2022/11/12 09:59:41;;;;;;;4.27;3.00;;;9.10;1.00;;;;;;5007188;28;20211;-84
2022/11/12 10:02:23;;;;;;;16.70;4.10;;;9.20;1.00;;;;;;5006896;28;20286;-83
2022/11/12 10:05:10;;;;;;;6.77;3.07;;;9.10;1.00;;;;;;5008029;28;20191;-81
2022/11/12 10:07:54;;;;;;;3.90;3.50;;;9.20;1.00;;;;;;5005067;28;20259;-82
2022/11/12 10:10:28;;;;;;;5.17;3.10;;;9.30;1.00;;;;;;5008140;28;20284;-83
2022/11/12 10:13:17;;;;;;;4.53;3.27;;;9.40;1.00;;;;;;5009832;28;20190;-79
2022/11/12 10:19:06;;;;;;;5.67;2.83;;;9.50;1.00;;;;;;5010873;28;20230;-80
2022/11/12 10:21:49;;;;;;;4.70;3.27;;;9.60;1.00;;;;;;5009267;28;20180;-79
2022/11/12 10:24:15;;;;;;;3.73;3.33;;;9.90;1.00;;;;;;5008890;28;20664;-80
2022/11/12 10:26:40;;;;;;;4.93;2.70;;;10.10;1.00;;;;;;5009844;28;20274;-86
2022/11/12 10:29:37;;;;;;;2.73;2.30;;;10.20;1.00;;;;;;5010021;28;20214;-82
2022/11/12 10:32:14;;;;;;;3.50;2.60;;;10.30;1.00;;;;;;5009348;28;20187;-80
2022/11/12 10:34:40;;;;;;;4.87;2.70;;;10.40;1.00;;;;;;5009510;28;20179;-81
2022/11/12 10:37:19;;;;;;;5.07;3.40;;;10.70;1.00;;;;;;5008226;28;20906;-80
2022/11/12 10:39:46;;;;;;;3.00;2.53;;;10.50;1.00;;;;;;5010129;28;20199;-86
2022/11/12 10:42:20;;;;;;;4.67;2.23;;;10.50;1.00;;;;;;5010017;28;20172;-83
2022/11/12 10:44:47;;;;;;;3.60;2.50;;;10.70;1.00;;;;;;5009765;28;20198;-80
2022/11/12 10:47:40;;;;;;;3.20;2.90;;;10.70;1.00;;;;;;5008180;28;21334;-83
2022/11/12 10:50:18;;;;;;;4.33;2.80;;;10.90;1.00;;;;;;5009476;28;20180;-80
2022/11/12 10:53:04;;;;;;;4.10;2.97;;;10.90;1.00;;;;;;5014278;28;20273;-80
2022/11/12 10:55:36;;;;;;;3.53;2.00;;;11.40;1.00;;;;;;5011111;28;20203;-80
2022/11/12 10:58:01;;;;;;;4.27;2.30;;;11.10;1.00;;;;;;5022820;28;20184;-84
2022/11/12 11:00:27;;;;;;;4.47;2.40;;;11.00;1.00;;;;;;5007298;28;20210;-82
2022/11/12 11:02:54;;;;;;;2.80;2.20;;;11.10;1.00;;;;;;5008829;28;20204;-81
2022/11/12 11:05:52;;;;;;;5.50;2.57;;;11.10;1.00;;;;;;5008328;28;20661;-80
2022/11/12 11:08:35;;;;;;;2.43;1.87;;;11.20;1.00;;;;;;5000902;28;20188;-81
2022/11/12 11:11:22;;;;;;;5.07;2.03;;;11.20;1.00;;;;;;5008052;28;20210;-81
2022/11/12 11:13:56;;;;;;;2.27;2.07;;;11.10;1.00;;;;;;5008405;28;20275;-81
2022/11/12 11:16:28;;;;;;;2.03;1.83;;;10.90;1.00;;;;;;5007608;28;20212;-84
2022/11/12 11:18:58;;;;;;;2.80;2.03;;;11.00;1.00;;;;;;5008721;28;20251;-84
2022/11/12 11:21:49;;;;;;;3.90;2.40;;;11.00;1.00;;;;;;5007723;28;20207;-83
2022/11/12 11:24:30;;;;;;;2.60;2.03;;;11.00;1.00;;;;;;5008458;28;20184;-82
2022/11/12 11:27:08;;;;;;;3.47;2.60;;;11.10;1.00;;;;;;5011614;28;20215;-80
2022/11/12 11:29:52;;;;;;;4.47;2.03;;;11.10;1.00;;;;;;5007473;28;20187;-81
2022/11/12 11:32:54;;;;;;;3.33;2.10;;;11.10;1.00;;;;;;5008249;28;20415;-86
2022/11/12 11:35:48;;;;;;;2.43;2.13;;;11.00;1.00;;;;;;5006842;28;20226;-80
2022/11/12 11:38:37;;;;;;;3.40;2.20;;;11.00;1.00;;;;;;5006273;28;20275;-80
2022/11/12 11:41:41;;;;;;;5.30;2.10;;;11.00;1.00;;;;;;5006540;28;20626;-82
2022/11/12 11:44:24;;;;;;;2.57;1.93;;;10.90;1.00;;;;;;5007638;28;20664;-85
2022/11/12 11:47:24;;;;;;;2.17;1.87;;;10.90;1.00;;;;;;5009718;28;20211;-82
2022/11/12 11:50:01;;;;;;;2.07;1.87;;;10.90;1.00;;;;;;5006378;28;20564;-80
2022/11/12 11:52:51;;;;;;;2.20;1.83;;;11.00;1.00;;;;;;5007083;28;21023;-86
2022/11/12 11:55:54;;;;;;;2.37;2.00;;;11.00;1.00;;;;;;5007021;28;20219;-80
2022/11/12 11:59:00;;;;;;;4.43;2.20;;;11.10;1.00;;;;;;4967869;28;20188;-80
2022/11/12 12:01:34;;;;;;;10.63;2.53;;;11.30;1.00;;;;;;4953131;28;20312;-79
2022/11/12 12:04:05;;;;;;;2.37;2.10;;;11.50;1.00;;;;;;5005555;28;20776;-83
2022/11/12 12:06:39;;;;;;;2.17;2.00;;;11.40;1.00;;;;;;5005626;28;20265;-80
2022/11/12 12:09:17;;;;;;;3.70;2.30;;;11.40;1.00;;;;;;5006554;28;20191;-79
2022/11/12 12:11:52;;;;;;;3.50;2.40;;;11.40;1.00;;;;;;5006914;28;20234;-80
2022/11/12 12:14:33;;;;;;;3.37;2.30;;;11.50;1.00;;;;;;5007443;28;20671;-82
2022/11/12 12:17:20;;;;;;;4.13;2.50;;;11.40;1.00;;;;;;5005227;28;20203;-81
2022/11/12 12:20:04;;;;;;;3.15;2.83;;;11.50;1.00;;;;;;5005453;28;20211;-81
2022/11/12 12:22:58;;;;;;;3.10;2.63;;;11.50;1.00;;;;;;5004264;28;20183;-80
2022/11/12 12:25:35;;;;;;;3.70;2.90;;;11.70;1.00;;;;;;5002815;28;20208;-78
2022/11/12 12:28:43;;;;;;;3.47;2.35;;;11.80;1.00;;;;;;5003231;28;20199;-78
2022/11/12 12:31:19;;;;;;;4.85;2.80;;;11.70;1.00;;;;;;4996331;28;20215;-78
2022/11/12 12:33:57;;;;;;;2.88;2.40;;;11.70;1.00;;;;;;5003597;28;20274;-82
2022/11/12 12:36:37;;;;;;;3.85;2.38;;;11.70;1.00;;;;;;5004127;28;20203;-79
2022/11/12 12:39:16;;;;;;;3.88;3.10;;;11.80;1.00;;;;;;5004138;28;20220;-80
2022/11/12 12:41:51;;;;;;;4.90;2.50;;;11.80;1.00;;;;;;5004046;28;20219;-81
2022/11/12 12:44:16;;;;;;;4.07;1.70;;;11.90;1.00;;;;;;5000798;28;20674;-80
2022/11/12 12:46:46;;;;;;;2.42;1.35;;;12.00;1.00;;;;;;5003521;28;20226;-81
2022/11/12 12:49:29;;;;;;;4.97;1.60;;;12.20;1.00;;;;;;5018108;28;20697;-80
2022/11/12 12:51:55;;;;;;;4.85;1.95;;;12.30;1.00;;;;;;5003226;28;20195;-80
2022/11/12 12:54:38;;;;;;;3.00;1.50;;;12.40;1.00;;;;;;5006283;28;20182;-79
2022/11/12 12:57:04;;;;;;;2.45;1.30;;;12.30;1.00;;;;;;5004150;28;20603;-79
2022/11/12 12:59:30;;;;;;;3.42;1.50;;;12.50;1.00;;;;;;5002584;28;20215;-80
2022/11/12 13:02:01;;;;;;;2.20;1.40;;;12.50;1.00;;;;;;5003988;28;20623;-79
2022/11/12 13:04:56;;;;;;;1.85;1.33;;;12.50;1.00;;;;;;5005348;28;20691;-80
2022/11/12 13:07:46;;;;;;;2.70;1.25;;;12.50;1.00;;;;;;5005485;28;20171;-84
2022/11/12 13:10:50;;;;;;;2.28;1.40;;;12.50;1.00;;;;;;5004513;28;20187;-80
2022/11/12 13:13:18;;;;;;;2.42;1.60;;;12.40;1.00;;;;;;5010008;28;20171;-80
2022/11/12 13:15:54;;;;;;;2.58;1.50;;;12.30;1.00;;;;;;5009498;28;20689;-79
2022/11/12 13:18:40;;;;;;;2.75;1.40;;;12.30;1.00;;;;;;5008700;28;20183;-81
2022/11/12 13:21:19;;;;;;;2.63;2.08;;;12.20;1.00;;;;;;5011024;28;20273;-80
2022/11/12 13:24:05;;;;;;;2.80;2.08;;;12.20;1.00;;;;;;5009657;28;20267;-81
2022/11/12 13:26:56;;;;;;;20.90;18.80;;;12.00;1.00;;;;;;5006904;28;20293;-80
2022/11/12 13:29:27;;;;;;;12.82;11.63;;;11.90;1.00;;;;;;5005015;28;20652;-80
2022/11/12 13:32:27;;;;;;;3.60;2.95;;;11.90;1.00;;;;;;5009720;28;20176;-79
2022/11/12 13:35:21;;;;;;;1.95;1.60;;;11.80;1.00;;;;;;5009036;28;20270;-79
2022/11/12 13:38:01;;;;;;;2.00;1.40;;;11.70;1.00;;;;;;5007112;28;20226;-79
2022/11/12 13:40:29;;;;;;;3.78;1.40;;;11.60;1.00;;;;;;5010135;28;20203;-79
2022/11/12 13:43:16;;;;;;;1.30;1.03;;;11.70;1.00;;;;;;5008310;28;20186;-80
2022/11/12 13:45:56;;;;;;;1.60;1.40;;;11.80;1.00;;;;;;5008257;28;20256;-79
2022/11/12 13:48:33;;;;;;;2.00;1.20;;;11.70;1.00;;;;;;5006096;28;20232;-81
2022/11/12 13:51:05;;;;;;;2.88;1.40;;;11.40;1.00;;;;;;5004892;28;20202;-81